Time;durP1;ratioP1;P1;durP2;ratioP2;P2;SDS_P1;SDS_P2;PMS_P1;PMS_P2;Temp;Humidity;BMP_temperature;BMP_pressure;BME280_temperature;BME280_humidity;BME280_pressure;Samples;Min_cycle;Max_cycle;Signal;HPM_P1;HPM_P2
2022/06/20 00:02:21;;;;;;;1.15;0.70;;;21.10;59.60;;;;;;5044103;28;44971;-63
2022/06/20 00:04:50;;;;;;;0.45;0.40;;;21.10;59.60;;;;;;5043972;28;43591;-63
2022/06/20 00:07:19;;;;;;;0.93;0.60;;;21.10;59.60;;;;;;5043797;28;43470;-63
2022/06/20 00:09:48;;;;;;;0.77;0.70;;;21.10;59.60;;;;;;5044453;28;43447;-63
2022/06/20 00:12:22;;;;;;;0.98;0.73;;;21.10;59.60;;;;;;5044126;28;44953;-63
2022/06/20 00:14:57;;;;;;;1.13;0.80;;;21.00;59.50;;;;;;5040987;28;44093;-63
2022/06/20 00:17:26;;;;;;;1.25;0.82;;;21.10;59.60;;;;;;5042878;28;43502;-63
2022/06/20 00:19:54;;;;;;;1.30;0.80;;;21.10;59.60;;;;;;5044329;28;43988;-62
2022/06/20 00:22:22;;;;;;;1.00;0.90;;;21.10;59.60;;;;;;5043625;28;44081;-63
2022/06/20 00:24:51;;;;;;;1.13;0.60;;;21.10;59.60;;;;;;5043966;28;43953;-63
2022/06/20 00:27:18;;;;;;;0.85;0.45;;;21.00;59.50;;;;;;5043019;28;43584;-63
2022/06/20 00:29:47;;;;;;;1.15;0.70;;;21.00;59.60;;;;;;5034298;28;43527;-63
2022/06/20 00:32:15;;;;;;;0.95;0.80;;;21.00;59.60;;;;;;5043516;28;44317;-63
2022/06/20 00:34:43;;;;;;;0.70;0.55;;;21.00;59.60;;;;;;5039593;28;43490;-63
2022/06/20 00:37:17;;;;;;;0.90;0.70;;;21.00;59.60;;;;;;5042710;28;43474;-63
2022/06/20 00:39:48;;;;;;;1.15;0.70;;;21.00;59.60;;;;;;5044155;28;43430;-63
2022/06/20 00:42:16;;;;;;;0.73;0.73;;;21.00;59.60;;;;;;5042543;28;44329;-63
2022/06/20 00:44:49;;;;;;;0.63;0.63;;;21.00;59.50;;;;;;5043082;28;43498;-63
2022/06/20 00:47:25;;;;;;;1.17;0.75;;;21.00;59.60;;;;;;5044040;28;44146;-62
2022/06/20 00:50:05;;;;;;;0.75;0.60;;;21.00;59.60;;;;;;5044010;28;43542;-62
2022/06/20 00:52:43;;;;;;;0.60;0.60;;;21.00;59.60;;;;;;5042965;28;44392;-63
2022/06/20 00:55:28;;;;;;;1.00;0.60;;;21.00;59.60;;;;;;5043825;28;43502;-62
2022/06/20 00:58:08;;;;;;;0.52;0.50;;;21.00;59.60;;;;;;5044309;28;43461;-63
2022/06/20 01:00:39;;;;;;;0.70;0.70;;;20.90;59.60;;;;;;5043603;28;43534;-63
2022/06/20 01:03:13;;;;;;;0.77;0.57;;;20.90;59.60;;;;;;5043493;28;43743;-62
2022/06/20 01:05:52;;;;;;;0.63;0.63;;;20.90;60.20;;;;;;5044189;28;43473;-63
2022/06/20 01:08:37;;;;;;;0.57;0.50;;;20.90;59.60;;;;;;5042351;28;43430;-63
2022/06/20 01:11:17;;;;;;;0.95;0.80;;;20.90;59.60;;;;;;5047146;28;43569;-63
2022/06/20 01:13:45;;;;;;;0.98;0.80;;;20.90;59.60;;;;;;5043901;28;44194;-63
2022/06/20 01:16:13;;;;;;;1.10;0.70;;;20.90;59.60;;;;;;5042349;28;43515;-63
2022/06/20 01:18:46;;;;;;;0.95;0.70;;;20.90;59.60;;;;;;5043399;28;43426;-63
2022/06/20 01:21:19;;;;;;;1.13;0.80;;;20.90;59.60;;;;;;5042999;28;43444;-63
2022/06/20 01:23:52;;;;;;;1.13;0.80;;;20.90;59.60;;;;;;5043316;28;43801;-63
2022/06/20 01:26:32;;;;;;;0.77;0.77;;;20.90;59.60;;;;;;5041117;28;43516;-63
2022/06/20 01:29:03;;;;;;;0.65;0.52;;;20.90;59.60;;;;;;5040997;28;43390;-63
2022/06/20 01:31:37;;;;;;;0.60;0.60;;;20.90;59.60;;;;;;5044127;28;44129;-63
2022/06/20 01:34:05;;;;;;;0.75;0.60;;;20.90;59.60;;;;;;5041832;28;44192;-62
2022/06/20 01:39:24;;;;;;;0.45;0.43;;;20.80;59.60;;;;;;5036576;28;44019;-63
2022/06/20 01:44:43;;;;;;;0.98;0.70;;;20.80;59.60;;;;;;5036927;28;44038;-63
2022/06/20 01:47:11;;;;;;;0.90;0.55;;;20.80;59.60;;;;;;5042531;28;43450;-62
2022/06/20 01:49:41;;;;;;;1.02;0.57;;;20.80;59.60;;;;;;5041749;28;43470;-63
2022/06/20 01:52:13;;;;;;;0.75;0.65;;;20.80;59.60;;;;;;5029563;28;44006;-62
2022/06/20 01:54:46;;;;;;;0.70;0.65;;;20.80;59.60;;;;;;5042946;28;44701;-63
2022/06/20 01:57:15;;;;;;;0.70;0.68;;;20.80;59.60;;;;;;5041037;28;43737;-62
2022/06/20 01:59:51;;;;;;;1.83;0.73;;;20.80;59.60;;;;;;5041184;28;43470;-63
2022/06/20 02:02:18;;;;;;;1.38;0.68;;;20.80;59.60;;;;;;5042699;28;43584;-63
2022/06/20 02:04:46;;;;;;;0.80;0.80;;;20.80;59.60;;;;;;5041591;28;45091;-63
2022/06/20 02:07:15;;;;;;;0.73;0.50;;;20.80;59.60;;;;;;5042385;28;44253;-62
2022/06/20 02:09:43;;;;;;;0.85;0.57;;;20.80;59.60;;;;;;5042269;28;43392;-63
2022/06/20 02:12:12;;;;;;;0.90;0.82;;;20.80;59.60;;;;;;5042210;28;43653;-63
2022/06/20 02:14:50;;;;;;;0.93;0.82;;;20.70;59.60;;;;;;5043338;28;44049;-63
2022/06/20 02:17:23;;;;;;;0.60;0.60;;;20.80;59.60;;;;;;5041097;28;43442;-62
2022/06/20 02:19:55;;;;;;;1.17;0.77;;;20.70;59.60;;;;;;5043026;28;43391;-63
2022/06/20 02:22:25;;;;;;;1.08;0.95;;;20.70;59.60;;;;;;5042608;28;43526;-63
2022/06/20 02:24:56;;;;;;;0.82;0.82;;;20.70;59.60;;;;;;5042386;28;44308;-63
2022/06/20 02:27:29;;;;;;;0.85;0.65;;;20.70;59.60;;;;;;5041661;28;43507;-62
2022/06/20 02:29:58;;;;;;;0.70;0.70;;;20.70;59.60;;;;;;5042353;28;43431;-63
2022/06/20 02:32:30;;;;;;;0.52;0.52;;;20.70;59.60;;;;;;5041919;28;43712;-63
2022/06/20 02:34:57;;;;;;;0.75;0.75;;;20.70;59.60;;;;;;5041009;28;44001;-63
2022/06/20 02:37:26;;;;;;;1.17;0.90;;;20.70;59.60;;;;;;5041599;28;43972;-62
2022/06/20 02:40:02;;;;;;;0.70;0.70;;;20.70;59.60;;;;;;5041556;28;43479;-63
2022/06/20 02:42:40;;;;;;;0.73;0.63;;;20.70;59.60;;;;;;5040736;28;43640;-62
2022/06/20 02:45:11;;;;;;;0.85;0.80;;;20.70;59.60;;;;;;5042685;28;44911;-63
2022/06/20 02:47:41;;;;;;;0.90;0.90;;;20.70;59.60;;;;;;5042036;28;43507;-62
2022/06/20 02:50:12;;;;;;;0.93;0.90;;;20.70;59.60;;;;;;5039145;28;44053;-63
2022/06/20 02:53:04;;;;;;;0.95;0.88;;;20.70;59.60;;;;;;5041102;28;43520;-63
2022/06/20 02:55:34;;;;;;;1.02;0.80;;;20.70;59.60;;;;;;5031560;28;45190;-63
2022/06/20 02:58:26;;;;;;;2.05;0.90;;;20.70;59.60;;;;;;5042015;28;43514;-63
2022/06/20 03:00:56;;;;;;;1.02;0.77;;;20.70;59.60;;;;;;5040946;28;43470;-63
2022/06/20 03:03:35;;;;;;;1.27;0.80;;;20.60;59.50;;;;;;5042403;28;43943;-62
2022/06/20 03:06:05;;;;;;;0.80;0.77;;;20.70;59.60;;;;;;5041950;28;43782;-63
2022/06/20 03:08:33;;;;;;;0.82;0.82;;;20.70;59.60;;;;;;5039186;28;43503;-63
2022/06/20 03:11:04;;;;;;;1.27;1.17;;;20.60;59.50;;;;;;5040627;28;43454;-63
2022/06/20 03:13:34;;;;;;;1.35;1.10;;;20.60;59.50;;;;;;5040797;28;43516;-63
2022/06/20 03:16:04;;;;;;;1.02;0.98;;;20.60;59.50;;;;;;5042240;28;44372;-63
2022/06/20 03:18:39;;;;;;;1.00;0.90;;;20.60;59.50;;;;;;5044411;28;43499;-63
2022/06/20 03:21:08;;;;;;;1.23;1.13;;;20.60;59.50;;;;;;5045146;28;43528;-62
2022/06/20 03:23:36;;;;;;;0.93;0.93;;;20.60;59.50;;;;;;5045365;28;43525;-63
2022/06/20 03:26:09;;;;;;;1.42;0.90;;;20.60;59.50;;;;;;5043723;28;43877;-63
2022/06/20 03:28:37;;;;;;;1.67;1.10;;;20.60;59.50;;;;;;5038205;28;43440;-63
2022/06/20 03:31:05;;;;;;;1.70;1.10;;;20.60;59.50;;;;;;5035475;28;43975;-63
2022/06/20 03:33:33;;;;;;;1.20;1.00;;;20.60;59.50;;;;;;5043890;28;43729;-63
2022/06/20 03:36:14;;;;;;;1.48;0.93;;;20.60;59.50;;;;;;5043948;28;44308;-63
2022/06/20 03:38:44;;;;;;;1.17;1.08;;;20.60;59.50;;;;;;5041021;28;43588;-62
2022/06/20 03:41:15;;;;;;;1.73;1.27;;;20.60;59.50;;;;;;5043571;28;43466;-62
2022/06/20 03:43:58;;;;;;;1.92;1.00;;;20.60;59.50;;;;;;5044188;28;43481;-63
2022/06/20 03:46:31;;;;;;;1.23;1.05;;;20.60;59.50;;;;;;5038130;28;44228;-63
2022/06/20 03:49:07;;;;;;;1.40;1.17;;;20.60;59.50;;;;;;5037475;28;43510;-63
2022/06/20 03:51:40;;;;;;;1.00;0.90;;;20.60;59.60;;;;;;5043855;28;43552;-63
2022/06/20 03:54:17;;;;;;;1.25;1.10;;;20.60;59.50;;;;;;5045719;28;43468;-63
2022/06/20 03:57:06;;;;;;;1.65;1.30;;;20.50;59.50;;;;;;5041776;28;43943;-63
2022/06/20 03:59:45;;;;;;;1.63;1.20;;;20.50;59.50;;;;;;5042977;28;45136;-63
2022/06/20 04:02:18;;;;;;;1.35;1.10;;;20.50;59.50;;;;;;5044063;28;43422;-63
2022/06/20 04:05:00;;;;;;;1.20;1.10;;;20.50;59.50;;;;;;5044154;28;43542;-63
2022/06/20 04:07:49;;;;;;;1.20;0.93;;;20.50;59.50;;;;;;5040429;28;45275;-63
2022/06/20 04:10:59;;;;;;;1.20;1.10;;;20.50;59.50;;;;;;5033913;28;43446;-63
2022/06/20 04:13:35;;;;;;;1.30;1.10;;;20.50;59.50;;;;;;5007118;28;43584;-63
2022/06/20 04:16:03;;;;;;;1.50;1.00;;;20.50;59.50;;;;;;5043182;28;43591;-63
2022/06/20 04:19:00;;;;;;;1.50;1.30;;;20.40;59.50;;;;;;5043759;28;43963;-62
2022/06/20 04:21:33;;;;;;;1.65;1.13;;;20.50;59.50;;;;;;5043587;28;43516;-62
2022/06/20 04:24:13;;;;;;;1.30;1.20;;;20.50;59.60;;;;;;5044441;28;43470;-63
2022/06/20 04:27:04;;;;;;;1.45;1.23;;;20.40;59.50;;;;;;5043786;28;43723;-62
2022/06/20 04:29:47;;;;;;;1.20;1.00;;;20.50;59.50;;;;;;5044096;28;44067;-63
2022/06/20 04:32:39;;;;;;;1.20;1.10;;;20.40;59.50;;;;;;5044118;28;43453;-63
2022/06/20 04:35:20;;;;;;;2.15;1.40;;;20.40;59.50;;;;;;5042757;28;43462;-62
2022/06/20 04:37:54;;;;;;;1.88;1.30;;;20.40;59.50;;;;;;5041278;28;43523;-63
2022/06/20 04:40:23;;;;;;;1.10;1.00;;;20.40;59.60;;;;;;5044909;28;43799;-63
2022/06/20 04:43:01;;;;;;;1.35;1.20;;;20.40;59.60;;;;;;5042917;28;43526;-63
2022/06/20 04:45:38;;;;;;;1.50;1.40;;;20.40;59.60;;;;;;5042740;28;43495;-64
2022/06/20 04:48:15;;;;;;;1.23;1.13;;;20.40;59.60;;;;;;5043818;28;43498;-62
2022/06/20 04:50:48;;;;;;;1.67;1.27;;;20.40;59.60;;;;;;5044246;28;44047;-63
2022/06/20 04:53:21;;;;;;;1.00;1.00;;;20.40;59.60;;;;;;5040520;28;43484;-63
2022/06/20 04:55:51;;;;;;;1.65;1.30;;;20.40;59.60;;;;;;5044105;28;43436;-62
2022/06/20 04:58:32;;;;;;;1.50;1.40;;;20.30;59.60;;;;;;5075346;28;43515;-62
2022/06/20 05:01:01;;;;;;;2.28;1.30;;;20.30;59.60;;;;;;5036844;28;45048;-63
2022/06/20 05:03:45;;;;;;;2.40;1.40;;;20.30;59.60;;;;;;5030830;28;43403;-63
2022/06/20 05:06:27;;;;;;;1.20;1.10;;;20.30;59.60;;;;;;5043661;28;43523;-62
2022/06/20 05:09:19;;;;;;;1.95;1.40;;;20.30;59.60;;;;;;5043238;28;43549;-62
2022/06/20 05:12:06;;;;;;;2.17;1.30;;;20.30;59.60;;;;;;5036931;28;45227;-63
2022/06/20 05:14:59;;;;;;;1.30;1.20;;;20.30;60.30;;;;;;5075337;28;43913;-62
2022/06/20 05:17:30;;;;;;;1.30;1.20;;;20.30;59.70;;;;;;5043126;28;43461;-62
2022/06/20 05:20:02;;;;;;;2.08;1.30;;;20.30;59.70;;;;;;5043609;28;43558;-63
2022/06/20 05:22:36;;;;;;;1.45;1.23;;;20.30;59.70;;;;;;5042912;28;44975;-62
2022/06/20 05:25:08;;;;;;;1.50;1.40;;;20.20;59.70;;;;;;5043237;28;43950;-62
2022/06/20 05:27:59;;;;;;;1.80;1.20;;;20.30;59.80;;;;;;5043199;28;43533;-63
2022/06/20 05:30:32;;;;;;;1.55;1.25;;;20.30;59.80;;;;;;5029545;28;43482;-63
2022/06/20 05:33:24;;;;;;;1.77;1.25;;;20.30;60.50;;;;;;5039933;28;43883;-63
2022/06/20 05:36:05;;;;;;;1.25;1.13;;;20.20;59.80;;;;;;5041856;28;43449;-63
2022/06/20 05:38:51;;;;;;;1.60;1.23;;;20.20;59.80;;;;;;5075054;27;43643;-63
2022/06/20 05:41:20;;;;;;;1.90;1.38;;;20.20;59.80;;;;;;5044089;28;43513;-62
2022/06/20 05:43:48;;;;;;;1.80;1.30;;;20.20;59.90;;;;;;5042199;28;43868;-63
2022/06/20 05:46:27;;;;;;;2.08;1.50;;;20.20;59.80;;;;;;5042779;28;43400;-63
2022/06/20 05:49:01;;;;;;;1.33;1.23;;;20.20;59.90;;;;;;5039264;28;43394;-62
2022/06/20 05:51:30;;;;;;;1.65;1.40;;;20.20;59.80;;;;;;5042127;28;43533;-62
2022/06/20 05:54:04;;;;;;;2.63;1.40;;;20.20;59.80;;;;;;5042112;28;43812;-61
2022/06/20 05:56:46;;;;;;;1.30;1.20;;;20.20;59.80;;;;;;5042758;28;43552;-63
2022/06/20 05:59:29;;;;;;;1.60;1.50;;;20.20;59.90;;;;;;5042358;28;43453;-63
2022/06/20 06:02:23;;;;;;;1.58;1.33;;;20.20;59.90;;;;;;5030398;28;43568;-63
2022/06/20 06:05:00;;;;;;;2.13;1.35;;;20.20;59.80;;;;;;5042099;28;44227;-62
2022/06/20 06:07:41;;;;;;;2.58;1.40;;;20.20;60.00;;;;;;5041510;28;43491;-63
2022/06/20 06:10:21;;;;;;;1.38;1.25;;;20.20;60.00;;;;;;5031296;28;43477;-63
2022/06/20 06:13:40;;;;;;;1.40;1.30;;;20.20;60.00;;;;;;5041478;28;43479;-63
2022/06/20 06:19:38;;;;;;;1.95;1.52;;;20.20;60.00;;;;;;5041216;28;43457;-62
2022/06/20 06:22:13;;;;;;;2.55;1.50;;;20.20;60.00;;;;;;5008145;28;43525;-62
2022/06/20 06:24:42;;;;;;;2.45;1.40;;;20.20;60.00;;;;;;5042367;28;43447;-62
2022/06/20 06:27:19;;;;;;;2.67;1.38;;;20.20;60.00;;;;;;5041483;28;44021;-63
2022/06/20 06:29:57;;;;;;;1.52;1.42;;;20.20;60.00;;;;;;5033524;28;44155;-62
2022/06/20 06:32:40;;;;;;;2.35;1.50;;;20.20;59.90;;;;;;5041906;28;43522;-63
2022/06/20 06:35:26;;;;;;;2.55;1.73;;;20.20;59.90;;;;;;5041404;28;43509;-63
2022/06/20 06:38:11;;;;;;;1.30;1.20;;;20.20;59.80;;;;;;5042074;28;43880;-62
2022/06/20 06:40:47;;;;;;;1.40;1.30;;;20.20;59.90;;;;;;5038358;28;43988;-62
2022/06/20 06:43:23;;;;;;;2.65;1.70;;;20.20;60.00;;;;;;5042160;28;43411;-63
2022/06/20 06:45:54;;;;;;;1.75;1.40;;;20.20;59.90;;;;;;5036096;28;43457;-63
2022/06/20 06:48:41;;;;;;;1.50;1.40;;;20.20;59.90;;;;;;5041703;28;43800;-63
2022/06/20 06:51:16;;;;;;;1.90;1.63;;;20.20;59.80;;;;;;5037682;28;43501;-63
2022/06/20 06:54:16;;;;;;;1.50;1.40;;;20.20;60.10;;;;;;5034897;28;44052;-63
2022/06/20 06:56:55;;;;;;;2.63;1.63;;;20.20;59.80;;;;;;5044174;28;44132;-63
2022/06/20 06:59:46;;;;;;;1.90;1.60;;;20.20;59.80;;;;;;5045133;28;44036;-63
2022/06/20 07:02:25;;;;;;;2.35;1.40;;;20.20;59.80;;;;;;5041393;28;43523;-63
2022/06/20 07:05:11;;;;;;;1.77;1.40;;;20.20;59.80;;;;;;5045840;28;43509;-63
2022/06/20 07:07:44;;;;;;;1.65;1.40;;;20.20;59.80;;;;;;5045341;28;43461;-62
2022/06/20 07:10:23;;;;;;;1.80;1.50;;;20.20;59.90;;;;;;5044020;28;44670;-63
2022/06/20 07:12:56;;;;;;;1.63;1.38;;;20.20;59.80;;;;;;5043912;28;44263;-63
2022/06/20 07:15:26;;;;;;;1.50;1.40;;;20.20;59.90;;;;;;5046437;28;43450;-63
2022/06/20 07:18:28;;;;;;;1.35;1.20;;;20.20;59.90;;;;;;5044563;28;43475;-62
2022/06/20 07:20:55;;;;;;;2.42;1.55;;;20.20;59.80;;;;;;5040996;28;44959;-63
2022/06/20 07:23:23;;;;;;;1.83;1.30;;;20.20;59.80;;;;;;5045145;28;43526;-62
2022/06/20 07:25:51;;;;;;;1.83;1.35;;;20.20;59.80;;;;;;5044840;28;43458;-63
2022/06/20 07:28:39;;;;;;;1.48;1.17;;;20.20;59.80;;;;;;5043759;28;43610;-63
2022/06/20 07:31:37;;;;;;;2.80;1.42;;;20.20;59.70;;;;;;5044944;28;44281;-63
2022/06/20 07:34:22;;;;;;;1.50;1.33;;;20.20;59.70;;;;;;5043660;28;43966;-63
2022/06/20 07:36:58;;;;;;;2.00;1.50;;;20.20;59.70;;;;;;5044831;28;43491;-63
2022/06/20 07:39:42;;;;;;;3.15;1.70;;;20.20;59.70;;;;;;5039734;28;43518;-63
2022/06/20 07:42:18;;;;;;;1.70;1.30;;;20.20;59.70;;;;;;5044570;28;44329;-63
2022/06/20 07:44:51;;;;;;;1.50;1.40;;;20.20;59.70;;;;;;5044825;28;43908;-63
2022/06/20 07:47:31;;;;;;;1.40;1.30;;;20.20;59.60;;;;;;5045995;28;43493;-62
2022/06/20 07:50:07;;;;;;;1.65;1.25;;;20.20;59.60;;;;;;5044622;28;43435;-62
2022/06/20 07:53:08;;;;;;;1.40;1.23;;;20.20;59.60;;;;;;5044024;28;44973;-62
2022/06/20 07:55:39;;;;;;;1.43;1.20;;;20.20;59.60;;;;;;5033966;28;43496;-63
2022/06/20 07:58:23;;;;;;;2.40;1.27;;;20.20;59.60;;;;;;5044574;28;43398;-63
2022/06/20 08:00:52;;;;;;;2.35;1.60;;;20.20;59.60;;;;;;5039973;28;43516;-63
2022/06/20 08:03:41;;;;;;;1.48;1.33;;;20.20;59.60;;;;;;5037966;28;43790;-62
2022/06/20 08:06:28;;;;;;;2.03;1.60;;;20.30;59.60;;;;;;5040000;28;44165;-62
2022/06/20 08:09:07;;;;;;;1.92;1.40;;;20.20;59.50;;;;;;5042432;28;43510;-63
2022/06/20 08:11:57;;;;;;;1.23;1.17;;;20.20;59.60;;;;;;5043314;28;43548;-62
2022/06/20 08:14:30;;;;;;;2.25;1.27;;;20.30;59.60;;;;;;5042504;28;43676;-62
2022/06/20 08:17:02;;;;;;;1.33;1.20;;;20.30;59.60;;;;;;5039367;28;43961;-62
2022/06/20 08:19:31;;;;;;;1.90;1.40;;;20.30;59.60;;;;;;5074791;28;43487;-62
2022/06/20 08:22:11;;;;;;;1.42;1.20;;;20.30;59.60;;;;;;5039242;28;43589;-62
2022/06/20 08:25:12;;;;;;;1.75;1.58;;;20.30;59.60;;;;;;5039484;28;44046;-62
2022/06/20 08:27:57;;;;;;;1.80;1.40;;;20.40;59.60;;;;;;5042728;28;43439;-62
2022/06/20 08:30:47;;;;;;;1.55;1.45;;;20.40;59.50;;;;;;5042114;28;43449;-62
2022/06/20 08:33:15;;;;;;;1.42;1.33;;;20.40;59.60;;;;;;5042400;28;43435;-62
2022/06/20 08:35:45;;;;;;;1.35;1.20;;;20.40;59.50;;;;;;5042075;28;44025;-62
2022/06/20 08:38:12;;;;;;;1.53;1.20;;;20.40;59.50;;;;;;5041683;28;43484;-62
2022/06/20 08:41:09;;;;;;;1.77;1.20;;;20.40;59.40;;;;;;5037966;28;43596;-62
2022/06/20 08:43:59;;;;;;;1.65;1.13;;;20.40;59.40;;;;;;5036580;28;43526;-62
2022/06/20 08:47:01;;;;;;;1.30;1.20;;;20.40;59.30;;;;;;5042477;28;44074;-62
2022/06/20 08:50:06;;;;;;;1.90;1.48;;;20.50;59.30;;;;;;5074027;28;43487;-62
2022/06/20 08:53:41;;;;;;;1.92;1.33;;;20.50;59.30;;;;;;5041452;28;43471;-62
2022/06/20 08:56:17;;;;;;;1.85;1.48;;;20.50;59.20;;;;;;5039793;28;43601;-62
2022/06/20 08:59:00;;;;;;;1.42;1.23;;;20.50;59.30;;;;;;5037667;28;43827;-63
2022/06/20 09:02:09;;;;;;;1.52;1.10;;;20.50;59.20;;;;;;5041374;28;43479;-63
2022/06/20 09:05:04;;;;;;;1.52;1.40;;;20.50;59.20;;;;;;4960040;28;43610;-62
2022/06/20 09:07:56;;;;;;;1.60;1.20;;;20.60;59.30;;;;;;4959250;28;43523;-63
2022/06/20 09:11:05;;;;;;;1.30;1.20;;;20.50;59.20;;;;;;5030617;28;44877;-63
2022/06/20 09:13:54;;;;;;;1.27;1.17;;;20.60;59.30;;;;;;5021623;28;43505;-63
2022/06/20 09:16:45;;;;;;;1.10;1.00;;;20.60;59.20;;;;;;5041158;28;43454;-63
2022/06/20 09:19:22;;;;;;;1.75;1.08;;;20.60;59.30;;;;;;5035350;28;43553;-63
2022/06/20 09:21:50;;;;;;;1.60;1.50;;;20.50;59.30;;;;;;5023220;28;44066;-62
2022/06/20 09:24:36;;;;;;;1.35;1.25;;;20.60;59.20;;;;;;5041455;28;43960;-63
2022/06/20 09:27:16;;;;;;;1.30;1.17;;;20.60;59.20;;;;;;5042095;28;43451;-64
2022/06/20 09:30:22;;;;;;;1.48;1.13;;;20.60;59.30;;;;;;5038032;28;43554;-63
2022/06/20 09:33:13;;;;;;;1.77;1.15;;;20.60;59.30;;;;;;5017795;28;43938;-63
2022/06/20 09:36:08;;;;;;;1.17;1.15;;;20.60;59.30;;;;;;5039631;28;43558;-63
2022/06/20 09:38:35;;;;;;;1.70;1.40;;;20.60;59.40;;;;;;5041452;28;43567;-63
2022/06/20 09:41:28;;;;;;;1.10;0.98;;;20.60;59.50;;;;;;5042406;28;43707;-63
2022/06/20 09:44:30;;;;;;;2.30;1.30;;;20.60;59.40;;;;;;5041516;28;44092;-63
2022/06/20 09:47:06;;;;;;;1.77;1.20;;;20.60;59.40;;;;;;5042839;28;43471;-63
2022/06/20 09:50:06;;;;;;;2.13;1.30;;;20.60;59.40;;;;;;5041537;28;43435;-63
2022/06/20 09:52:58;;;;;;;2.33;1.27;;;20.70;59.50;;;;;;5038006;28;43745;-63
2022/06/20 09:55:57;;;;;;;2.00;1.15;;;20.70;59.30;;;;;;5039173;28;44936;-63
2022/06/20 09:59:02;;;;;;;2.28;1.48;;;20.70;59.40;;;;;;5041114;28;43529;-63
2022/06/20 10:01:39;;;;;;;1.77;1.35;;;20.70;59.40;;;;;;5041222;28;43482;-63
2022/06/20 10:04:17;;;;;;;2.35;1.30;;;20.70;59.50;;;;;;5042569;28;43490;-63
2022/06/20 10:07:00;;;;;;;2.65;1.17;;;20.70;59.50;;;;;;5040575;28;44114;-63
2022/06/20 10:09:38;;;;;;;2.53;1.40;;;20.70;59.40;;;;;;5041684;28;43443;-63
2022/06/20 10:12:19;;;;;;;2.17;1.35;;;20.70;59.40;;;;;;5042134;28;44099;-63
2022/06/20 10:15:05;;;;;;;3.35;1.52;;;20.80;59.40;;;;;;5036075;28;43455;-63
2022/06/20 10:17:47;;;;;;;2.47;1.50;;;20.70;59.40;;;;;;5038541;28;44052;-63
2022/06/20 10:20:43;;;;;;;2.35;1.90;;;20.80;59.40;;;;;;5041795;28;43975;-64
2022/06/20 10:23:22;;;;;;;3.45;1.80;;;20.80;59.40;;;;;;5040519;28;43419;-63
2022/06/20 10:26:00;;;;;;;3.30;1.90;;;20.80;59.40;;;;;;5041425;28;43503;-63
2022/06/20 10:28:39;;;;;;;4.20;2.00;;;20.80;59.40;;;;;;5041804;28;44023;-63
2022/06/20 10:31:37;;;;;;;6.97;2.40;;;20.80;59.40;;;;;;5040604;28;44302;-63
2022/06/20 10:34:26;;;;;;;7.57;2.55;;;20.80;59.40;;;;;;5041948;28;43511;-63
2022/06/20 10:37:22;;;;;;;8.60;3.10;;;20.80;59.40;;;;;;5041792;28;44063;-63
2022/06/20 10:39:52;;;;;;;6.85;2.80;;;20.80;59.40;;;;;;5041440;28;44389;-63
2022/06/20 10:42:32;;;;;;;7.03;2.93;;;20.80;59.50;;;;;;5038768;28;43935;-63
2022/06/20 10:45:06;;;;;;;3.72;2.10;;;20.90;59.70;;;;;;5040609;28;43486;-63
2022/06/20 10:47:36;;;;;;;4.40;2.50;;;20.90;59.50;;;;;;5040535;28;43531;-63
2022/06/20 10:50:32;;;;;;;4.85;2.50;;;21.00;59.50;;;;;;5039945;28;44032;-63
2022/06/20 10:53:02;;;;;;;4.95;2.60;;;21.00;59.40;;;;;;5039772;28;43531;-63
2022/06/20 10:55:39;;;;;;;6.03;3.17;;;21.00;59.40;;;;;;5040567;28;43502;-62
2022/06/20 10:58:29;;;;;;;7.38;2.80;;;21.00;59.30;;;;;;5039991;28;43593;-62
2022/06/20 11:01:09;;;;;;;5.38;2.60;;;21.00;59.30;;;;;;5039205;28;44671;-62
2022/06/20 11:04:16;;;;;;;7.97;2.67;;;21.00;59.20;;;;;;5040876;28;43478;-62
2022/06/20 11:07:15;;;;;;;4.22;2.40;;;21.10;59.30;;;;;;5037245;28;43447;-62
2022/06/20 11:09:49;;;;;;;3.83;2.40;;;21.00;59.10;;;;;;5039551;28;43489;-62
2022/06/20 11:12:26;;;;;;;6.30;2.53;;;21.10;59.10;;;;;;5037652;28;43779;-62
2022/06/20 11:15:22;;;;;;;4.93;2.40;;;21.10;59.10;;;;;;5039681;28;43920;-62
2022/06/20 11:18:00;;;;;;;6.07;2.53;;;21.10;59.00;;;;;;5038952;28;43582;-62
2022/06/20 11:20:49;;;;;;;5.18;2.22;;;21.10;59.00;;;;;;5040306;28;43580;-62
2022/06/20 11:23:35;;;;;;;5.50;2.22;;;21.10;59.00;;;;;;5039489;28;44039;-62
2022/06/20 11:26:15;;;;;;;4.45;2.20;;;21.10;59.00;;;;;;5039970;28;43481;-62
2022/06/20 11:29:26;;;;;;;5.35;2.50;;;21.10;59.00;;;;;;5037286;28;43457;-62
2022/06/20 11:31:58;;;;;;;3.72;2.60;;;21.20;58.90;;;;;;5033445;28;43525;-63
2022/06/20 11:34:32;;;;;;;4.00;2.13;;;21.20;59.00;;;;;;5040507;28;43797;-63
2022/06/20 11:37:05;;;;;;;3.90;2.22;;;21.20;59.10;;;;;;5043894;28;44004;-63
2022/06/20 11:40:04;;;;;;;2.67;1.85;;;21.20;59.00;;;;;;5044119;28;43512;-63
2022/06/20 11:42:46;;;;;;;3.90;2.13;;;21.20;59.00;;;;;;5066058;28;43579;-63
2022/06/20 11:45:32;;;;;;;4.35;2.30;;;21.20;59.10;;;;;;5035523;28;44336;-63
2022/06/20 11:48:02;;;;;;;3.65;2.10;;;21.30;59.20;;;;;;5044357;28;43519;-63
2022/06/20 11:50:36;;;;;;;3.13;2.15;;;21.30;59.20;;;;;;5044489;28;43484;-63
2022/06/20 11:53:22;;;;;;;2.70;1.95;;;21.30;59.20;;;;;;5044583;28;43590;-62
2022/06/20 11:56:24;;;;;;;3.45;1.90;;;21.30;59.20;;;;;;5076272;28;44201;-63
2022/06/20 11:59:21;;;;;;;2.47;1.88;;;21.30;59.00;;;;;;5038609;28;44109;-63
2022/06/20 12:02:10;;;;;;;4.93;2.13;;;21.30;59.30;;;;;;5044770;28;43448;-63
2022/06/20 12:04:55;;;;;;;3.83;1.95;;;21.30;59.20;;;;;;5043524;28;43580;-63
2022/06/20 12:08:12;;;;;;;3.40;2.00;;;21.40;59.20;;;;;;5039105;28;43891;-63
2022/06/20 12:10:51;;;;;;;3.15;2.08;;;21.40;59.30;;;;;;5041362;28;43551;-63
2022/06/20 12:13:37;;;;;;;3.45;2.05;;;21.30;59.20;;;;;;5041908;28;43500;-63
2022/06/20 12:16:41;;;;;;;2.45;1.80;;;21.40;59.20;;;;;;5040989;28;43587;-63
2022/06/20 12:25:28;;;;;;;3.00;1.95;;;21.40;59.00;;;;;;5043323;28;43404;-63
2022/06/20 12:27:56;;;;;;;3.40;1.85;;;21.50;59.10;;;;;;5023756;28;43517;-63
2022/06/20 12:30:24;;;;;;;2.20;1.70;;;21.50;59.20;;;;;;5043736;28;44175;-63
2022/06/20 12:32:56;;;;;;;3.85;2.00;;;21.50;59.20;;;;;;5043039;28;43486;-63
2022/06/20 12:35:35;;;;;;;2.25;1.70;;;21.50;59.20;;;;;;5044472;28;43489;-63
2022/06/20 12:38:32;;;;;;;2.47;1.80;;;21.50;59.20;;;;;;5043873;28;43551;-63
2022/06/20 12:41:05;;;;;;;2.65;1.83;;;21.50;59.20;;;;;;5043119;28;44052;-63
2022/06/20 12:43:57;;;;;;;2.20;1.67;;;21.50;59.00;;;;;;5043750;28;43533;-63
2022/06/20 12:46:32;;;;;;;2.83;1.73;;;21.50;59.00;;;;;;5044742;28;43440;-63
2022/06/20 12:49:21;;;;;;;4.00;1.98;;;21.60;59.20;;;;;;5032200;28;43551;-63
2022/06/20 12:51:57;;;;;;;2.80;1.80;;;21.60;59.00;;;;;;5044060;28;45013;-63
2022/06/20 12:54:44;;;;;;;3.00;1.90;;;21.60;59.20;;;;;;5038677;28;43469;-63
2022/06/20 12:57:35;;;;;;;2.92;1.77;;;21.60;59.30;;;;;;5032414;28;43437;-63
2022/06/20 13:00:37;;;;;;;2.70;1.77;;;21.60;59.20;;;;;;5043244;28;43597;-63
2022/06/20 13:03:15;;;;;;;1.83;1.67;;;21.60;59.20;;;;;;5036677;28;44979;-63
2022/06/20 13:06:32;;;;;;;2.20;1.70;;;21.60;59.00;;;;;;5043048;28;43475;-63
2022/06/20 13:09:12;;;;;;;1.50;1.40;;;21.70;59.20;;;;;;5020612;28;43432;-63
2022/06/20 13:12:07;;;;;;;1.85;1.55;;;21.60;59.10;;;;;;5024367;28;44021;-63
2022/06/20 13:15:22;;;;;;;2.85;1.90;;;21.70;59.10;;;;;;5032851;28;45390;-63
2022/06/20 13:18:31;;;;;;;3.78;1.88;;;21.70;59.10;;;;;;5018015;28;43918;-63
2022/06/20 13:21:18;;;;;;;2.22;1.60;;;21.70;59.00;;;;;;5015530;28;43521;-63
2022/06/20 13:23:58;;;;;;;2.45;1.65;;;21.70;59.10;;;;;;5022439;28;43464;-63
2022/06/20 13:26:42;;;;;;;1.43;1.33;;;21.70;58.90;;;;;;5025431;28;44200;-63
2022/06/20 13:29:35;;;;;;;2.85;1.83;;;21.70;59.00;;;;;;5021734;28;43978;-63
2022/06/20 13:32:12;;;;;;;2.58;1.60;;;21.70;59.00;;;;;;5020892;28;43552;-63
2022/06/20 13:35:02;;;;;;;2.22;1.65;;;21.70;59.00;;;;;;5024682;28;43582;-63
2022/06/20 13:38:04;;;;;;;2.20;1.60;;;21.80;58.80;;;;;;5022735;28;44013;-63
2022/06/20 13:40:44;;;;;;;2.30;1.60;;;21.80;59.00;;;;;;5030476;28;43544;-63
2022/06/20 13:43:24;;;;;;;2.47;1.60;;;21.80;58.80;;;;;;5028666;28;43471;-63
2022/06/20 13:46:13;;;;;;;1.63;1.50;;;21.80;58.80;;;;;;5022265;28;43508;-63
2022/06/20 13:48:49;;;;;;;1.75;1.40;;;21.90;59.00;;;;;;5024819;28;44035;-63
2022/06/20 13:52:02;;;;;;;1.90;1.50;;;21.90;59.00;;;;;;5023118;28;43993;-63
2022/06/20 13:54:52;;;;;;;2.33;1.55;;;21.90;59.10;;;;;;5019908;28;43451;-63
2022/06/20 13:57:30;;;;;;;1.33;1.30;;;21.90;59.00;;;;;;5018784;28;43527;-63
2022/06/20 14:00:07;;;;;;;1.80;1.45;;;21.80;59.00;;;;;;5039021;28;44029;-63
2022/06/20 14:02:42;;;;;;;2.80;1.63;;;21.80;58.90;;;;;;5023638;28;43446;-63
2022/06/20 14:05:20;;;;;;;3.63;1.60;;;21.80;58.70;;;;;;5022917;28;43434;-63
2022/06/20 14:07:53;;;;;;;1.95;1.27;;;21.80;58.70;;;;;;5038377;28;43439;-63
2022/06/20 14:10:36;;;;;;;2.17;1.50;;;21.80;58.90;;;;;;5042212;28;44023;-63
2022/06/20 14:13:13;;;;;;;1.77;1.50;;;21.80;59.00;;;;;;5038087;28;43465;-63